Latest Coastal Weather Observations for Wyndham Airport

IDD60701

Issued at 9:11 am CST Sunday 22 January 2017 (issued every 10 minutes, with the page automatically refreshed every 10 minutes)

About coastal observations | Map of coastal stations | Coastal observations for NT | Marine services | Other Formats
Station Details ID: 001006 Name: WYNDHAM AERO Lat: -15.51 Lon: 128.15 Height: 3.8 m
Data from the previous 72 hours. | See also: Recent months at Wyndham Airport
Date/Time
CST
Temp
°C
Wind Pressure Rain since
9am
mm
Weather Cloud Vis
km
Sea
Height
m
Swell
Dir  Spd
kts
Gust
kts
hPa Trend Height
m
Period
s
Dir
22/09:00am 29.3 WSW 8 11 1009.1 - 23.0 - - - - - - -
22/08:30am 29.0 W 7 8 1008.9 - 23.0 - - - - - - -
22/08:00am 28.4 W 5 7 1008.9 - 23.0 - - - - - - -
22/07:30am 27.4 W 3 4 1008.8 - 23.0 - - - - - - -
22/07:00am 26.7 W 5 6 1008.4 - 23.0 - - - - - - -
22/06:30am 26.7 WSW 6 6 1008.0 - 23.0 - - - - - - -
22/06:00am 26.7 WSW 4 5 1007.8 - 23.0 - - - - - - -
22/05:30am 26.9 W 5 6 1007.6 - 23.0 - - - - - - -
22/05:00am 27.2 CALM 0 0 1007.7 - 23.0 - - - - - - -
22/04:30am 27.0 CALM 0 0 1007.7 - 23.0 - - - - - - -
22/04:00am 27.0 CALM 0 0 1007.9 - 23.0 - - - - - - -
22/03:30am 27.0 NNW 1 4 1007.8 - 23.0 - - - - - - -
22/03:00am 27.1 NNW 4 5 1007.9 - 23.0 - - - - - - -
22/02:30am 27.0 CALM 0 0 1008.1 - 23.0 - - - - - - -
22/02:00am 26.9 CALM 0 0 1008.2 - 23.0 - - - - - - -
22/01:30am 26.8 CALM 0 0 1008.1 - 23.0 - - - - - - -
22/01:00am 26.8 CALM 0 0 1008.3 - 23.0 - - - - - - -
22/12:30am 26.9 CALM 0 0 1008.5 - 23.0 - - - - - - -
22/12:00am 26.8 CALM 0 0 1008.8 - 23.0 - - - - - - -
 
Date/Time
CST
Temp
°C
Wind Pressure Rain since
9am
mm
Weather Cloud Vis
km
Sea
Height
m
Swell
Dir  Spd
kts
Gust
kts
hPa Trend Height
m
Period
s
Dir
21/11:30pm 27.1 CALM 0 0 1009.0 - 23.0 - - - - - - -
21/11:00pm 26.7 CALM 0 2 1008.8 - 23.0 - - - - - - -
21/10:30pm 26.6 NNW 4 5 1008.5 - 23.0 - - - - - - -
21/10:00pm 26.8 W 8 10 1008.5 - 23.0 - - - - - - -
21/09:30pm 26.8 SSW 8 9 1008.5 - 23.0 - - - - - - -
21/09:00pm 26.7 SW 5 7 1008.2 - 23.0 - - - - - - -
21/08:30pm 26.6 SW 8 9 1007.5 - 23.0 - - - - - - -
21/08:00pm 26.8 NW 4 5 1007.2 - 23.0 - - - - - - -
21/07:30pm 26.2 NNW 5 7 1007.1 - 23.0 - - - - - - -
21/07:00pm 26.2 NW 4 7 1007.1 - 23.0 - - - - - - -
21/06:30pm 26.2 WNW 10 13 1007.2 - 23.0 - - - - - - -
21/06:00pm 25.7 NW 19 24 1006.7 - 22.8 - - - - - - -
21/05:30pm 25.9 NW 20 26 1006.6 - 15.4 - - - - - - -
21/05:00pm 27.1 NW 23 34 1005.6 - 0.0 - - - - - - -
21/04:50pm 29.7 NNW 16 26 1005.1 - 0.0 - - - - - - -
21/04:49pm 29.9 NNW 15 24 1005.1 - 0.0 - - - - - - -
21/04:30pm 32.6 N 7 13 1005.1 - 0.0 - - - - - - -
21/04:00pm 34.1 CALM 0 3 1005.0 - 0.0 - - - - - - -
21/03:30pm 34.2 SSE 2 6 1005.4 - 0.0 - - - - - - -
21/03:00pm 33.6 W 5 8 1005.7 - 0.0 - - - - - - -
21/02:30pm 33.2 N 3 6 1006.2 - 0.0 - - - - - - -
21/02:00pm 32.6 NE 2 6 1006.8 - 0.0 - - - - - - -
21/01:30pm 32.5 NW 4 10 1007.4 - 0.0 - - - - - - -
21/01:00pm 32.2 W 4 8 1007.8 - 0.0 - - - - - - -
21/12:30pm 32.1 NW 5 8 1008.2 - 0.0 - - - - - - -
21/12:00pm 31.1 WNW 6 9 1008.7 - 0.0 - - - - - - -
21/11:30am 31.0 W 7 10 1009.1 - 0.0 - - - - - - -
21/11:00am 30.2 WNW 5 7 1009.1 - 0.0 - - - - - - -
21/10:30am 29.9 WNW 6 9 1009.3 - 0.0 - - - - - - -
21/10:00am 29.1 NW 7 10 1009.3 - 0.0 - - - - - - -
21/09:30am 28.7 NW 8 11 1009.3 - 0.0 - - - - - - -
21/09:00am 28.6 NW 5 7 1009.4 - 0.0 - - - - - - -
21/08:30am 28.1 NW 6 7 1009.3 - 0.0 - - - - - - -
21/08:00am 27.6 NW 4 5 1009.1 - 0.0 - - - - - - -
21/07:30am 27.1 NW 4 5 1008.9 - 0.0 - - - - - - -
21/07:00am 26.8 NW 4 4 1008.5 - 0.0 - - - - - - -
21/06:30am 26.9 WNW 5 6 1007.9 - 0.0 - - - - - - -
21/06:00am 26.8 NW 5 6 1007.4 - 0.0 - - - - - - -
21/05:30am 26.9 NW 5 6 1007.2 - 0.0 - - - - - - -
21/05:00am 27.0 NW 5 6 1006.9 - 0.0 - - - - - - -
21/04:30am 27.0 CALM 0 0 1007.0 - 0.0 - - - - - - -
21/04:00am 27.1 CALM 0 0 1007.0 - 0.0 - - - - - - -
21/03:30am 27.2 CALM 0 0 1006.9 - 0.0 - - - - - - -
21/03:00am 27.1 CALM 0 0 1006.8 - 0.0 - - - - - - -
21/02:30am 27.1 CALM 0 0 1006.8 - 0.0 - - - - - - -
21/02:00am 27.0 CALM 0 0 1006.8 - 0.0 - - - - - - -
21/01:30am 27.3 CALM 0 0 1007.2 - 0.0 - - - - - - -
21/01:00am 27.2 CALM 0 0 1007.1 - 0.0 - - - - - - -
21/12:30am 27.2 CALM 0 0 1007.5 - 0.0 - - - - - - -
21/12:00am 27.4 CALM 0 0 1007.7 - 0.0 - - - - - - -
 
Date/Time
CST
Temp
°C
Wind Pressure Rain since
9am
mm
Weather Cloud Vis
km
Sea
Height
m
Swell
Dir  Spd
kts
Gust
kts
hPa Trend Height
m
Period
s
Dir
20/11:30pm 27.5 CALM 0 0 1007.9 - 0.0 - - - - - - -
20/11:00pm 27.7 CALM 0 0 1007.9 - 0.0 - - - - - - -
20/10:30pm 27.8 CALM 0 0 1007.6 - 0.0 - - - - - - -
20/10:00pm 27.5 ESE 2 6 1007.3 - 0.0 - - - - - - -
20/09:30pm 27.4 CALM 0 3 1007.0 - 0.0 - - - - - - -
20/09:00pm 27.2 CALM 0 2 1006.8 - 0.0 - - - - - - -
20/08:30pm 27.2 ESE 2 5 1006.5 - 0.0 - - - - - - -
20/08:00pm 27.0 E 5 6 1006.2 - 0.0 - - - - - - -
20/07:30pm 27.2 E 5 6 1005.9 - 0.0 - - - - - - -
20/07:00pm 27.7 ESE 5 6 1005.6 - 0.0 - - - - - - -
20/06:30pm 28.0 N 6 8 1005.2 - 0.0 - - - - - - -
20/06:00pm 28.4 NNE 3 6 1005.1 - 0.0 - - - - - - -
20/05:30pm 28.2 NNW 4 6 1004.9 - 0.0 - - - - - - -
20/05:00pm 27.6 NW 12 16 1005.1 - 0.0 - - - - - - -
20/04:30pm 27.4 NW 15 18 1005.2 - 0.0 - - - - - - -
20/04:00pm 27.7 WNW 18 21 1005.6 - 0.0 - - - - - - -
20/03:51pm 27.8 NW 15 21 1005.5 - 0.0 - - - - - - -
20/03:30pm 28.4 NNW 9 11 1005.5 - 0.0 - - - - - - -
20/03:00pm 28.8 N 6 8 1005.5 - 0.0 - - - - - - -
20/02:30pm 27.9 NNW 13 17 1005.8 - 0.0 - - - - - - -
20/02:00pm 29.1 NW 10 17 1006.3 - 0.0 - - - - - - -
20/01:30pm 28.6 N 11 14 1006.3 - 0.0 - - - - - - -
20/01:00pm 31.0 NNW 12 22 1006.1 - 0.0 - - - - - - -
20/12:59pm 31.0 NNW 11 21 1006.1 - 0.0 - - - - - - -
20/12:30pm 33.0 WNW 7 11 1006.2 - 0.0 - - - - - - -
20/12:00pm 32.1 NNW 7 10 1006.6 - 0.0 - - - - - - -
20/11:30am 31.9 W 5 7 1007.1 - 0.0 - - - - - - -
20/11:00am 31.7 NW 4 7 1007.5 - 0.0 - - - - - - -
20/10:30am 31.5 NNW 5 7 1007.7 - 0.0 - - - - - - -
20/10:00am 30.5 WNW 5 8 1007.8 - 0.0 - - - - - - -
20/09:30am 30.0 NW 5 8 1007.6 - 0.0 - - - - - - -
20/09:00am 29.7 WNW 6 9 1007.5 - 0.0 - - - - - - -
20/08:30am 29.1 NW 7 8 1007.4 - 0.0 - - - - - - -
20/08:00am 28.2 NW 7 8 1007.2 - 0.0 - - - - - - -
20/07:30am 27.6 WNW 5 6 1007.1 - 0.0 - - - - - - -
20/07:00am 26.9 CALM 0 0 1006.9 - 0.0 - - - - - - -
20/06:30am 26.9 NNW 7 8 1006.5 - 0.0 - - - - - - -
20/06:00am 27.2 NW 8 9 1006.0 - 0.0 - - - - - - -
20/05:30am 27.4 NW 8 9 1005.7 - 0.0 - - - - - - -
20/05:00am 27.6 NW 9 11 1005.4 - 0.0 - - - - - - -
20/04:30am 27.8 NW 10 12 1005.4 - 0.0 - - - - - - -
20/04:00am 27.7 NW 9 11 1005.6 - 0.0 - - - - - - -
20/03:30am 27.8 NW 8 9 1005.7 - 0.0 - - - - - - -
20/03:00am 28.0 NW 7 10 1005.9 - 0.0 - - - - - - -
20/02:30am 28.3 WNW 10 12 1006.1 - 0.0 - - - - - - -
20/02:00am 28.4 WNW 9 11 1006.2 - 0.0 - - - - - - -
20/01:30am 28.5 NW 7 8 1006.5 - 0.0 - - - - - - -
20/01:00am 28.4 NW 7 9 1006.7 - 0.0 - - - - - - -
20/12:30am 28.7 NW 7 9 1006.7 - 0.0 - - - - - - -
20/12:00am 29.1 NW 7 8 1007.0 - 0.0 - - - - - - -
 
Date/Time
CST
Temp
°C
Wind Pressure Rain since
9am
mm
Weather Cloud Vis
km
Sea
Height
m
Swell
Dir  Spd
kts
Gust
kts
hPa Trend Height
m
Period
s
Dir
19/11:30pm 29.3 NW 6 9 1007.0 - 0.0 - - - - - - -
19/11:00pm 29.4 NNW 7 10 1006.6 - 0.0 - - - - - - -
19/10:30pm 29.7 NNW 5 8 1006.5 - 0.0 - - - - - - -
19/10:00pm 29.9 N 1 4 1006.3 - 0.0 - - - - - - -
19/09:30pm 29.7 E 4 5 1006.2 - 0.0 - - - - - - -
19/09:00pm 30.1 NE 2 7 1005.9 - 0.0 - - - - - - -
19/08:30pm 30.3 NNE 5 8 1005.7 - 0.0 - - - - - - -
19/08:00pm 30.5 N 6 9 1005.2 - 0.0 - - - - - - -
19/07:30pm 30.6 N 8 11 1004.3 - 0.0 - - - - - - -
19/07:00pm 30.7 N 9 11 1004.1 - 0.0 - - - - - - -
19/06:30pm 31.3 N 9 12 1003.8 - 0.0 - - - - - - -
19/06:00pm 32.1 N 10 14 1003.8 - 0.0 - - - - - - -
19/05:30pm 32.9 N 9 15 1003.6 - 0.0 - - - - - - -
19/05:00pm 34.0 NNW 7 10 1003.5 - 0.0 - - - - - - -
19/04:30pm 34.5 NNW 7 11 1004.0 - 0.0 - - - - - - -
19/04:00pm 34.8 NW 6 11 1004.4 - 0.0 - - - - - - -
19/03:30pm 33.7 NW 8 12 1005.1 - 0.0 - - - - - - -
19/03:00pm 33.9 WNW 9 13 1005.4 - 0.0 - - - - - - -
19/02:30pm 33.4 WNW 10 14 1005.9 - 0.0 - - - - - - -
19/02:00pm 33.0 NW 10 15 1006.3 - 0.0 - - - - - - -
19/01:30pm 31.9 W 5 8 1006.8 - 0.0 - - - - - - -
19/01:00pm 32.3 WNW 7 12 1007.2 - 0.0 - - - - - - -
19/12:30pm 31.5 WNW 7 10 1007.7 - 0.0 - - - - - - -
19/12:00pm 31.0 W 5 10 1008.2 - 0.0 - - - - - - -
19/11:30am 30.4 NW 5 7 1008.7 - 0.0 - - - - - - -
19/11:00am 30.3 W 5 7 1009.1 - 0.0 - - - - - - -

Other Formats:

Comma delimited format used in spreadsheet applications
http://www.bom.gov.au/fwo/IDD60701/IDD60701.95214.axf

JavaScript Object Notation format (JSON) in row-major order
http://www.bom.gov.au/fwo/IDD60701/IDD60701.95214.json